createdAt,value
2023-01-13T00:18:41.224Z,100
2023-01-13T00:28:41.924Z,100
2023-01-13T00:38:42.948Z,98
2023-01-13T00:48:43.307Z,98
2023-01-13T00:58:43.889Z,97
2023-01-13T01:08:44.653Z,95
2023-01-13T01:18:44.874Z,95
2023-01-13T01:28:45.031Z,94
2023-01-13T01:38:45.440Z,93
2023-01-13T01:48:46.446Z,92
2023-01-13T01:58:46.696Z,92
2023-01-13T02:08:46.852Z,90
2023-01-13T02:18:47.672Z,90
2023-01-13T02:28:47.716Z,90
2023-01-13T02:38:48.512Z,90
2023-01-13T02:48:48.898Z,90
2023-01-13T03:08:50.235Z,88
2023-01-13T03:28:51.195Z,84
2023-01-13T03:38:51.429Z,82
2023-01-13T03:48:52.310Z,83
2023-01-13T03:58:53.109Z,84
2023-01-13T04:08:54.013Z,83
2023-01-13T04:18:54.209Z,83
2023-01-13T04:28:54.683Z,84
2023-01-13T04:38:55.247Z,84
2023-01-13T04:48:55.999Z,84
2023-01-13T04:58:56.621Z,84
2023-01-13T05:08:57.192Z,85
2023-01-13T05:18:57.656Z,85
2023-01-13T05:28:58.248Z,88
2023-01-13T05:38:58.398Z,88
2023-01-13T05:48:58.716Z,86
2023-01-13T05:58:58.998Z,86
2023-01-13T06:08:59.545Z,85
2023-01-13T06:19:00.037Z,85
2023-01-13T06:29:00.937Z,85
2023-01-13T06:39:01.246Z,84
2023-01-13T06:49:02.050Z,85
2023-01-13T06:59:02.280Z,84
2023-01-13T07:09:03.303Z,84
2023-01-13T07:19:04.026Z,84
2023-01-13T07:29:04.771Z,82
2023-01-13T07:39:05.226Z,83
2023-01-13T07:49:05.694Z,83
2023-01-13T07:59:06.140Z,84
2023-01-13T08:09:06.569Z,83
2023-01-13T08:19:07.213Z,81
2023-01-13T08:29:07.940Z,81
2023-01-13T08:39:08.178Z,79
2023-01-13T08:49:08.800Z,79
2023-01-13T08:59:09.302Z,80
2023-01-13T09:09:09.691Z,80
2023-01-13T09:19:10.311Z,80
2023-01-13T09:29:11.409Z,80
2023-01-13T09:39:12.398Z,80
2023-01-13T09:49:13.241Z,80
2023-01-13T09:59:13.631Z,80
2023-01-13T10:09:14.368Z,80
2023-01-13T10:19:14.817Z,80
2023-01-13T10:29:15.069Z,79
2023-01-13T10:31:53.455Z,79
2023-01-13T10:39:23.768Z,78
2023-01-13T10:49:24.043Z,77
2023-01-13T10:59:24.365Z,77
2023-01-13T11:09:24.755Z,76
2023-01-13T11:19:24.961Z,75
2023-01-13T11:29:25.153Z,76
2023-01-13T11:39:25.627Z,76
2023-01-13T11:49:25.919Z,76
2023-01-13T11:59:26.638Z,78
2023-01-13T12:19:27.782Z,83
2023-01-13T12:29:28.305Z,83
2023-01-13T12:39:29.357Z,86
2023-01-13T12:49:29.514Z,85
2023-01-13T12:59:30.023Z,86
2023-01-13T13:09:30.930Z,86
2023-01-13T13:19:31.811Z,83
2023-01-13T13:29:32.166Z,82
2023-01-13T13:39:33.045Z,82
2023-01-13T13:49:33.086Z,81
2023-01-13T13:59:33.577Z,81
2023-01-13T14:09:34.169Z,83
2023-01-13T14:19:35.137Z,85
2023-01-13T14:29:35.641Z,85
2023-01-13T14:39:38.085Z,85
2023-01-13T14:49:36.643Z,87
2023-01-13T14:59:37.575Z,90
2023-01-13T15:09:37.682Z,93
2023-01-13T15:19:38.467Z,94
2023-01-13T15:29:38.799Z,94
2023-01-13T15:39:39.253Z,95
2023-01-13T15:59:40.271Z,95
2023-01-13T16:09:40.426Z,93
2023-01-13T16:19:40.959Z,92
2023-01-13T16:29:41.729Z,92
2023-01-13T16:39:42.437Z,90
2023-01-13T16:49:42.672Z,89
2023-01-13T16:59:43.074Z,88
2023-01-13T17:09:43.433Z,88
2023-01-13T17:19:44.224Z,89
2023-01-13T17:29:45.206Z,89
2023-01-13T17:39:45.548Z,87
2023-01-13T17:49:46.138Z,88
2023-01-13T17:59:46.967Z,87
2023-01-13T18:09:47.710Z,87
2023-01-13T18:19:47.861Z,89
2023-01-13T18:29:48.364Z,90
2023-01-13T18:39:49.242Z,89
2023-01-13T18:49:49.641Z,88
2023-01-13T18:59:49.826Z,87
2023-01-13T19:09:50.366Z,87
2023-01-13T19:19:51.304Z,87
2023-01-13T19:29:52.927Z,86
2023-01-13T19:39:53.130Z,86
2023-01-13T19:49:53.441Z,85
2023-01-13T19:59:53.881Z,84
2023-01-13T20:09:54.034Z,82
2023-01-13T20:19:55.033Z,83
2023-01-13T20:29:55.313Z,83
2023-01-13T20:39:55.466Z,83
2023-01-13T20:49:55.680Z,82
2023-01-13T20:59:55.935Z,82
2023-01-13T21:09:56.373Z,82
2023-01-13T21:19:56.551Z,82
2023-01-13T21:29:56.711Z,83
2023-01-13T21:39:57.578Z,84
2023-01-13T21:49:58.299Z,85
2023-01-13T21:59:59.136Z,84
2023-01-13T22:09:59.608Z,85
2023-01-13T22:30:00.743Z,87
2023-01-13T22:40:01.539Z,88
2023-01-13T22:50:01.720Z,88
2023-01-13T23:00:02.539Z,88
2023-01-13T23:10:03.174Z,87
2023-01-13T23:20:03.916Z,87
2023-01-13T23:30:05.045Z,87
2023-01-13T23:40:05.966Z,87
2023-01-13T23:50:06.497Z,86
